createdAt,value
2019-04-22T00:04:40.303Z,100280.59
2019-04-22T00:10:03.075Z,100276.41
2019-04-22T00:15:02.305Z,100270.34
2019-04-22T00:20:11.640Z,100263.64
2019-04-22T00:25:20.155Z,100266.80
2019-04-22T00:30:22.444Z,100266.19
2019-04-22T00:35:29.265Z,100260.09
2019-04-22T00:40:42.762Z,100254.65
2019-04-22T00:45:44.559Z,100251.36
2019-04-22T00:51:01.695Z,100244.33
2019-04-22T00:56:07.241Z,100250.86
2019-04-22T01:01:19.150Z,100243.86
2019-04-22T01:06:21.549Z,100245.68
2019-04-22T01:11:48.054Z,100244.95
2019-04-22T01:16:46.078Z,100241.86
2019-04-22T01:21:46.779Z,100242.09
2019-04-22T01:26:43.497Z,100237.73
2019-04-22T01:31:43.832Z,100231.27
2019-04-22T01:37:03.532Z,100225.78
2019-04-22T01:42:39.809Z,100229.88
2019-04-22T01:47:43.728Z,100216.39
2019-04-22T01:57:53.692Z,100211.92
2019-04-22T02:03:07.333Z,100199.91
2019-04-22T02:08:19.827Z,100202.71
2019-04-22T02:13:21.862Z,100202.08
2019-04-22T02:18:31.569Z,100196.16
2019-04-22T02:34:09.292Z,100186.02
2019-04-22T02:59:28.810Z,100179.18
2019-04-22T03:04:32.318Z,100166.56
2019-04-22T03:09:54.261Z,100164.39
2019-04-22T03:20:02.318Z,100145.87
2019-04-22T03:35:50.043Z,100143.09
2019-04-22T03:41:03.695Z,100134.17
2019-04-22T03:45:52.994Z,100138.17
2019-04-22T03:51:22.266Z,100141.65
2019-04-22T03:56:37.398Z,100147.52
2019-04-22T04:01:30.529Z,100144.50
2019-04-22T04:06:40.068Z,100138.72
2019-04-22T04:11:55.746Z,100134.27
2019-04-22T04:16:47.675Z,100134.64
2019-04-22T04:21:53.534Z,100142.69
2019-04-22T04:32:18.749Z,100134.27
2019-04-22T04:47:39.064Z,100139.08
2019-04-22T05:02:56.252Z,100146.73
2019-04-22T05:13:01.737Z,100141.13
2019-04-22T05:18:06.556Z,100143.80
2019-04-22T05:23:11.987Z,100147.41
2019-04-22T05:28:15.207Z,100149.04
2019-04-22T05:33:21.679Z,100137.91
2019-04-22T05:38:33.410Z,100141.95
2019-04-22T05:43:34.361Z,100148.98
2019-04-22T05:53:57.531Z,100145.74
2019-04-22T06:04:11.389Z,100140.10
2019-04-22T06:14:24.767Z,100144.88
2019-04-22T06:19:33.252Z,100135.66
2019-04-22T06:24:43.051Z,100145.59
2019-04-22T06:29:47.648Z,100144.73
2019-04-22T06:35:15.177Z,100144.86
2019-04-22T06:40:11.016Z,100141.19
2019-04-22T06:45:18.883Z,100130.98
2019-04-22T06:50:23.043Z,100137.54
2019-04-22T07:00:38.377Z,100130.55
2019-04-22T07:05:42.865Z,100129.42
2019-04-22T07:10:49.152Z,100131.69
2019-04-22T07:21:01.239Z,100124.45
2019-04-22T07:26:08.732Z,100125.06
2019-04-22T07:31:16.252Z,100127.36
2019-04-22T07:41:31.766Z,100121.99
2019-04-22T07:46:43.437Z,100123.20
2019-04-22T07:51:43.891Z,100114.44
2019-04-22T07:57:07.285Z,100112.77
2019-04-22T08:02:04.462Z,100110.77
2019-04-22T08:07:26.026Z,100115.41
2019-04-22T08:12:11.701Z,100118.63
2019-04-22T08:17:45.057Z,100114.28
2019-04-22T08:22:22.944Z,100111.74
2019-04-22T08:27:30.187Z,100106.00
2019-04-22T08:32:44.146Z,100107.05
2019-04-22T08:37:51.101Z,100104.55
2019-04-22T08:47:55.326Z,100104.17
2019-04-22T08:53:05.832Z,100108.40
2019-04-22T08:58:25.107Z,100110.59
2019-04-22T09:03:10.950Z,100113.75
2019-04-22T09:08:19.317Z,100116.78
2019-04-22T09:13:22.201Z,100119.40
2019-04-22T09:18:36.596Z,100109.44
2019-04-22T09:23:38.449Z,100108.19
2019-04-22T09:28:44.052Z,100110.47
2019-04-22T09:33:44.040Z,100109.13
2019-04-22T09:38:46.915Z,100088.21
2019-04-22T09:43:59.085Z,100088.21
2019-04-22T09:49:12.247Z,100097.50
2019-04-22T09:54:13.942Z,100095.34
2019-04-22T09:59:20.659Z,100098.56
2019-04-22T10:04:25.398Z,100082.16
2019-04-22T10:09:53.169Z,100077.95
2019-04-22T10:14:45.104Z,100081.27
2019-04-22T10:19:49.322Z,100074.20
2019-04-22T10:25:01.706Z,100063.97
2019-04-22T10:35:12.322Z,100061.92
2019-04-22T10:40:19.649Z,100054.72
2019-04-22T10:45:26.376Z,100051.70
2019-04-22T10:50:43.154Z,100045.05
2019-04-22T10:55:51.048Z,100041.23
2019-04-22T11:00:56.349Z,100025.92
2019-04-22T11:06:03.355Z,100012.08
2019-04-22T11:11:21.582Z,100025.09
2019-04-22T11:16:17.286Z,100018.72
2019-04-22T11:21:23.323Z,100004.44
2019-04-22T11:26:30.193Z,99997.89
2019-04-22T11:31:38.687Z,99991.40
2019-04-22T11:36:47.056Z,99985.67
2019-04-22T11:41:53.944Z,99987.87
2019-04-22T11:47:01.589Z,99985.82
2019-04-22T11:52:10.456Z,99967.49
2019-04-22T11:57:15.221Z,99981.67
2019-04-22T12:02:23.378Z,99983.98
2019-04-22T12:07:32.983Z,99975.48
2019-04-22T12:12:39.604Z,99951.06
2019-04-22T12:17:46.808Z,99963.33
2019-04-22T12:22:53.364Z,99966.82
2019-04-22T12:27:59.199Z,99951.75
2019-04-22T12:33:09.281Z,99931.27
2019-04-22T12:38:13.126Z,99939.27
2019-04-22T12:43:22.199Z,99933.33
2019-04-22T12:48:28.294Z,99928.48
2019-04-22T12:53:34.033Z,99910.36
2019-04-22T12:58:39.190Z,99907.72
2019-04-22T13:03:44.750Z,99890.14
2019-04-22T13:08:49.948Z,99889.34
2019-04-22T13:13:54.961Z,99893.27
2019-04-22T13:19:05.628Z,99888.44
2019-04-22T13:24:07.149Z,99886.77
2019-04-22T13:29:12.898Z,99875.46
2019-04-22T13:34:26.235Z,99855.61
2019-04-22T13:39:25.213Z,99864.53
2019-04-22T13:44:31.445Z,99862.01
2019-04-22T13:50:13.593Z,99848.70
2019-04-22T13:55:05.700Z,99854.76
2019-04-22T13:59:57.874Z,99857.52
2019-04-22T14:04:59.142Z,99841.78
2019-04-22T14:10:08.684Z,99848.93
2019-04-22T14:15:20.154Z,99840.29
2019-04-22T14:20:29.463Z,99832.67
2019-04-22T14:25:36.862Z,99830.02
2019-04-22T14:30:42.588Z,99825.97
2019-04-22T14:35:48.234Z,99817.87
2019-04-22T14:40:54.429Z,99802.22
2019-04-22T14:46:32.037Z,99803.61
2019-04-22T14:51:26.089Z,99796.78
2019-04-22T14:56:18.161Z,99789.15
2019-04-22T15:01:24.617Z,99797.09
2019-04-22T15:06:31.840Z,99792.20
2019-04-22T15:11:52.835Z,99779.84
2019-04-22T15:17:02.629Z,99782.79
2019-04-22T15:22:08.471Z,99777.14
2019-04-22T15:27:14.166Z,99780.68
2019-04-22T15:32:21.203Z,99773.45
2019-04-22T15:37:28.726Z,99783.38
2019-04-22T15:42:38.301Z,99777.21
2019-04-22T15:47:42.270Z,99761.91
2019-04-22T15:52:51.293Z,99775.38
2019-04-22T15:57:54.940Z,99784.83
2019-04-22T16:03:04.267Z,99760.75
2019-04-22T16:08:08.864Z,99765.51
2019-04-22T16:13:20.391Z,99772.28
2019-04-22T16:18:22.472Z,99772.41
2019-04-22T16:23:40.463Z,99769.59
2019-04-22T16:28:47.377Z,99773.22
2019-04-22T16:33:54.366Z,99761.59
2019-04-22T16:39:02.746Z,99764.47
2019-04-22T16:44:16.155Z,99768.36
2019-04-22T16:49:25.566Z,99760.58
2019-04-22T16:54:32.814Z,99765.23
2019-04-22T16:59:40.354Z,99750.97
2019-04-22T17:05:13.870Z,99748.89
2019-04-22T17:10:19.658Z,99746.93
2019-04-22T17:15:33.399Z,99758.69
2019-04-22T17:20:38.700Z,99775.34
2019-04-22T17:25:44.619Z,99752.80
2019-04-22T17:30:50.245Z,99764.34
2019-04-22T17:35:55.304Z,99759.66
2019-04-22T17:41:11.904Z,99763.31
2019-04-22T17:46:32.437Z,99774.11
2019-04-22T17:52:13.875Z,99777.61
2019-04-22T17:57:15.364Z,99777.43
2019-04-22T18:02:23.910Z,99791.45
2019-04-22T18:07:37.052Z,99783.24
2019-04-22T18:12:43.807Z,99793.67
2019-04-22T18:17:53.075Z,99787.75
2019-04-22T18:22:49.376Z,99787.63
2019-04-22T18:28:06.108Z,99785.72
2019-04-22T18:33:13.232Z,99789.73
2019-04-22T18:38:32.419Z,99789.17
2019-04-22T18:43:28.848Z,99784.14
2019-04-22T18:48:33.261Z,99785.67
2019-04-22T18:53:54.117Z,99793.16
2019-04-22T18:58:51.037Z,99787.86
2019-04-22T19:03:54.181Z,99786.91
2019-04-22T19:09:15.060Z,99786.91
2019-04-22T19:14:35.610Z,99791.48
2019-04-22T19:19:34.373Z,99791.02
2019-04-22T19:24:28.929Z,99796.11
2019-04-22T19:29:48.792Z,99787.23
2019-04-22T19:34:47.773Z,99785.66
2019-04-22T19:40:03.526Z,99787.42
2019-04-22T19:45:04.071Z,99784.94
2019-04-22T19:50:29.422Z,99788.26
2019-04-22T19:55:21.868Z,99778.06
2019-04-22T20:00:37.480Z,99770.31
2019-04-22T20:06:08.892Z,99768.64
2019-04-22T20:11:19.541Z,99768.59
2019-04-22T20:16:08.610Z,99759.67
2019-04-22T20:21:31.198Z,99757.43
2019-04-22T20:26:23.531Z,99748.33
2019-04-22T20:31:44.168Z,99747.52
2019-04-22T20:36:56.966Z,99740.92
2019-04-22T20:41:57.656Z,99741.44
2019-04-22T20:47:00.288Z,99725.18
2019-04-22T20:52:16.361Z,99721.64
2019-04-22T20:57:15.412Z,99717.63
2019-04-22T21:02:17.899Z,99710.59
2019-04-22T21:07:26.666Z,99704.42
2019-04-22T21:12:27.537Z,99693.70
2019-04-22T21:17:46.022Z,99693.70
2019-04-22T21:22:48.292Z,99691.98
2019-04-22T21:28:05.046Z,99688.69
2019-04-22T21:33:06.637Z,99682.28
2019-04-22T21:38:24.339Z,99682.38
2019-04-22T21:43:32.095Z,99678.55
2019-04-22T21:48:36.684Z,99675.63
2019-04-22T21:53:48.838Z,99671.80
2019-04-22T21:59:15.642Z,99672.46
2019-04-22T22:04:17.343Z,99666.97
2019-04-22T22:09:31.753Z,99657.25
2019-04-22T22:14:31.700Z,99656.39
2019-04-22T22:19:44.414Z,99648.34
2019-04-22T22:24:50.158Z,99646.20
2019-04-22T22:30:06.598Z,99641.28
2019-04-22T22:35:02.636Z,99632.24
2019-04-22T22:39:57.976Z,99626.69
2019-04-22T22:45:07.883Z,99623.91
2019-04-22T22:50:26.232Z,99621.29
2019-04-22T22:55:34.435Z,99615.17
2019-04-22T23:00:36.956Z,99609.05
2019-04-22T23:05:55.517Z,99607.24
2019-04-22T23:11:00.781Z,99604.89
2019-04-22T23:15:55.538Z,99591.08
2019-04-22T23:20:49.620Z,99587.55
2019-04-22T23:26:32.226Z,99587.37
2019-04-22T23:31:36.806Z,99588.62
2019-04-22T23:36:54.203Z,99583.30
2019-04-22T23:42:10.963Z,99576.63
2019-04-22T23:47:11.041Z,99586.06
2019-04-22T23:52:28.490Z,99578.55
2019-04-22T23:57:39.011Z,99572.52
